sensor_id;sensor_type;location;lat;lon;timestamp;pressure;altitude;pressure_sealevel;temperature;humidity
83195;BME280;73090;49.282;11.402;2024-02-26T00:01:45;94842.53;;;1.07;91.76
83195;BME280;73090;49.282;11.402;2024-02-26T00:05:47;94831.09;;;1.02;92.31
83195;BME280;73090;49.282;11.402;2024-02-26T00:09:49;94828.53;;;0.94;92.30
83195;BME280;73090;49.282;11.402;2024-02-26T00:13:50;94831.78;;;0.96;92.30
83195;BME280;73090;49.282;11.402;2024-02-26T00:17:52;94827.25;;;0.89;92.67
83195;BME280;73090;49.282;11.402;2024-02-26T00:21:54;94820.81;;;0.85;92.72
83195;BME280;73090;49.282;11.402;2024-02-26T00:25:57;94819.84;;;0.86;93.16
83195;BME280;73090;49.282;11.402;2024-02-26T00:29:59;94825.84;;;0.79;93.31
83195;BME280;73090;49.282;11.402;2024-02-26T00:34:00;94823.84;;;0.89;92.77
83195;BME280;73090;49.282;11.402;2024-02-26T00:38:02;94817.78;;;0.74;92.80
83195;BME280;73090;49.282;11.402;2024-02-26T00:42:04;94815.66;;;0.77;93.92
83195;BME280;73090;49.282;11.402;2024-02-26T00:46:06;94805.81;;;0.72;93.32
83195;BME280;73090;49.282;11.402;2024-02-26T00:50:08;94808.75;;;0.69;94.18
83195;BME280;73090;49.282;11.402;2024-02-26T00:54:10;94797.59;;;0.69;94.93
83195;BME280;73090;49.282;11.402;2024-02-26T00:58:11;94788.34;;;0.75;95.00
83195;BME280;73090;49.282;11.402;2024-02-26T01:02:13;94791.59;;;0.77;95.10
83195;BME280;73090;49.282;11.402;2024-02-26T01:06:15;94796.94;;;0.75;94.12
83195;BME280;73090;49.282;11.402;2024-02-26T01:10:16;94803.22;;;0.72;93.63
83195;BME280;73090;49.282;11.402;2024-02-26T01:14:18;94791.09;;;0.73;93.38
83195;BME280;73090;49.282;11.402;2024-02-26T01:18:20;94796.78;;;0.68;93.44
83195;BME280;73090;49.282;11.402;2024-02-26T01:22:22;94801.66;;;0.63;93.19
83195;BME280;73090;49.282;11.402;2024-02-26T01:26:23;94801.31;;;0.66;94.96
83195;BME280;73090;49.282;11.402;2024-02-26T01:30:25;94807.41;;;0.82;95.59
83195;BME280;73090;49.282;11.402;2024-02-26T01:34:27;94813.22;;;0.84;94.89
83195;BME280;73090;49.282;11.402;2024-02-26T01:38:28;94825.50;;;0.82;94.25
83195;BME280;73090;49.282;11.402;2024-02-26T01:42:30;94815.16;;;0.82;94.07
83195;BME280;73090;49.282;11.402;2024-02-26T01:46:35;94811.78;;;0.81;94.17
83195;BME280;73090;49.282;11.402;2024-02-26T01:50:37;94803.53;;;0.78;93.60
83195;BME280;73090;49.282;11.402;2024-02-26T01:54:40;94812.13;;;0.70;93.47
83195;BME280;73090;49.282;11.402;2024-02-26T01:58:42;94802.78;;;0.69;93.79
83195;BME280;73090;49.282;11.402;2024-02-26T02:02:44;94800.84;;;0.63;93.68
83195;BME280;73090;49.282;11.402;2024-02-26T02:06:48;94795.06;;;0.52;93.71
83195;BME280;73090;49.282;11.402;2024-02-26T02:10:50;94793.00;;;0.48;94.15
83195;BME280;73090;49.282;11.402;2024-02-26T02:14:52;94786.19;;;0.47;94.10
83195;BME280;73090;49.282;11.402;2024-02-26T02:18:54;94786.53;;;0.44;95.49
83195;BME280;73090;49.282;11.402;2024-02-26T02:22:55;94791.03;;;0.50;96.13
83195;BME280;73090;49.282;11.402;2024-02-26T02:26:57;94786.78;;;0.57;95.89
83195;BME280;73090;49.282;11.402;2024-02-26T02:30:59;94784.03;;;0.59;95.99
83195;BME280;73090;49.282;11.402;2024-02-26T02:35:02;94780.59;;;0.75;96.27
83195;BME280;73090;49.282;11.402;2024-02-26T02:39:04;94781.66;;;0.88;96.03
83195;BME280;73090;49.282;11.402;2024-02-26T02:43:05;94772.09;;;0.97;95.72
83195;BME280;73090;49.282;11.402;2024-02-26T02:47:07;94778.13;;;1.13;95.09
83195;BME280;73090;49.282;11.402;2024-02-26T02:51:09;94766.75;;;1.22;94.49
83195;BME280;73090;49.282;11.402;2024-02-26T02:55:10;94774.31;;;1.32;93.18
83195;BME280;73090;49.282;11.402;2024-02-26T02:59:12;94780.59;;;1.37;92.98
83195;BME280;73090;49.282;11.402;2024-02-26T03:03:14;94774.94;;;1.34;92.07
83195;BME280;73090;49.282;11.402;2024-02-26T03:07:15;94778.34;;;1.34;91.67
83195;BME280;73090;49.282;11.402;2024-02-26T03:11:17;94777.16;;;1.37;91.77
83195;BME280;73090;49.282;11.402;2024-02-26T03:15:19;94783.75;;;1.48;91.08
83195;BME280;73090;49.282;11.402;2024-02-26T03:19:20;94761.47;;;1.61;90.08
83195;BME280;73090;49.282;11.402;2024-02-26T03:23:22;94768.41;;;1.84;88.95
83195;BME280;73090;49.282;11.402;2024-02-26T03:27:24;94761.91;;;1.88;88.38
83195;BME280;73090;49.282;11.402;2024-02-26T03:31:25;94756.72;;;1.88;87.87
83195;BME280;73090;49.282;11.402;2024-02-26T03:35:27;94758.22;;;1.83;87.58
83195;BME280;73090;49.282;11.402;2024-02-26T03:39:28;94765.38;;;1.80;87.40
83195;BME280;73090;49.282;11.402;2024-02-26T03:43:31;94767.84;;;1.74;88.11
83195;BME280;73090;49.282;11.402;2024-02-26T03:47:33;94761.03;;;1.58;88.48
83195;BME280;73090;49.282;11.402;2024-02-26T03:51:35;94751.69;;;1.49;88.90
83195;BME280;73090;49.282;11.402;2024-02-26T03:55:36;94748.47;;;1.47;89.30
83195;BME280;73090;49.282;11.402;2024-02-26T03:59:38;94747.66;;;1.46;88.30
83195;BME280;73090;49.282;11.402;2024-02-26T04:03:41;94742.19;;;1.41;88.60
83195;BME280;73090;49.282;11.402;2024-02-26T04:07:43;94752.72;;;1.39;88.63
83195;BME280;73090;49.282;11.402;2024-02-26T04:11:44;94750.81;;;1.33;89.32
83195;BME280;73090;49.282;11.402;2024-02-26T04:15:46;94756.06;;;1.25;89.31
83195;BME280;73090;49.282;11.402;2024-02-26T04:19:48;94761.47;;;1.15;89.48
83195;BME280;73090;49.282;11.402;2024-02-26T04:23:50;94758.13;;;1.06;89.66
83195;BME280;73090;49.282;11.402;2024-02-26T04:27:51;94757.81;;;1.01;89.38
83195;BME280;73090;49.282;11.402;2024-02-26T04:31:53;94769.13;;;1.08;88.88
83195;BME280;73090;49.282;11.402;2024-02-26T04:35:55;94784.59;;;1.17;87.99
83195;BME280;73090;49.282;11.402;2024-02-26T04:40:00;94777.38;;;1.35;86.80
83195;BME280;73090;49.282;11.402;2024-02-26T04:44:02;94778.44;;;1.41;86.38
83195;BME280;73090;49.282;11.402;2024-02-26T04:48:04;94774.13;;;1.56;84.69
83195;BME280;73090;49.282;11.402;2024-02-26T04:52:06;94786.41;;;1.62;84.54
83195;BME280;73090;49.282;11.402;2024-02-26T04:56:07;94777.94;;;1.69;85.32
83195;BME280;73090;49.282;11.402;2024-02-26T05:00:09;94784.72;;;1.70;85.07
83195;BME280;73090;49.282;11.402;2024-02-26T05:04:11;94794.72;;;1.73;85.38
83195;BME280;73090;49.282;11.402;2024-02-26T05:08:13;94790.00;;;1.76;85.57
83195;BME280;73090;49.282;11.402;2024-02-26T05:12:14;94802.94;;;1.76;86.37
83195;BME280;73090;49.282;11.402;2024-02-26T05:16:16;94795.06;;;1.70;87.12
83195;BME280;73090;49.282;11.402;2024-02-26T05:20:18;94793.16;;;1.63;87.47
83195;BME280;73090;49.282;11.402;2024-02-26T05:24:19;94788.34;;;1.60;86.72
83195;BME280;73090;49.282;11.402;2024-02-26T05:28:24;94798.25;;;1.57;86.53
83195;BME280;73090;49.282;11.402;2024-02-26T05:32:25;94792.97;;;1.50;86.74
83195;BME280;73090;49.282;11.402;2024-02-26T05:36:27;94796.75;;;1.39;87.40
83195;BME280;73090;49.282;11.402;2024-02-26T05:40:34;94788.59;;;1.27;87.96
83195;BME280;73090;49.282;11.402;2024-02-26T05:44:36;94792.31;;;1.25;89.06
83195;BME280;73090;49.282;11.402;2024-02-26T05:48:38;94797.44;;;1.33;88.39
83195;BME280;73090;49.282;11.402;2024-02-26T05:52:40;94792.91;;;1.35;87.76
83195;BME280;73090;49.282;11.402;2024-02-26T05:56:42;94795.28;;;1.37;86.85
83195;BME280;73090;49.282;11.402;2024-02-26T06:00:44;94794.38;;;1.30;87.16
83195;BME280;73090;49.282;11.402;2024-02-26T06:04:45;94788.75;;;1.26;86.67
83195;BME280;73090;49.282;11.402;2024-02-26T06:08:48;94794.91;;;1.25;86.96
83195;BME280;73090;49.282;11.402;2024-02-26T06:12:50;94795.69;;;1.25;87.21
83195;BME280;73090;49.282;11.402;2024-02-26T06:16:52;94807.22;;;1.23;87.38
83195;BME280;73090;49.282;11.402;2024-02-26T06:20:53;94805.41;;;1.23;87.93
83195;BME280;73090;49.282;11.402;2024-02-26T06:24:55;94818.97;;;1.25;88.13
83195;BME280;73090;49.282;11.402;2024-02-26T06:28:57;94830.44;;;1.31;88.33
83195;BME280;73090;49.282;11.402;2024-02-26T06:32:59;94823.06;;;1.20;88.05
83195;BME280;73090;49.282;11.402;2024-02-26T06:37:00;94823.06;;;1.20;89.18
83195;BME280;73090;49.282;11.402;2024-02-26T06:41:02;94834.31;;;1.35;89.31
83195;BME280;73090;49.282;11.402;2024-02-26T06:45:05;94833.88;;;1.55;89.19
83195;BME280;73090;49.282;11.402;2024-02-26T06:49:06;94841.97;;;1.75;89.08
83195;BME280;73090;49.282;11.402;2024-02-26T06:53:08;94838.94;;;1.94;87.75
83195;BME280;73090;49.282;11.402;2024-02-26T06:57:10;94841.56;;;2.09;86.72
83195;BME280;73090;49.282;11.402;2024-02-26T07:01:12;94849.47;;;2.31;86.61
83195;BME280;73090;49.282;11.402;2024-02-26T07:05:14;94853.72;;;2.47;82.38
83195;BME280;73090;49.282;11.402;2024-02-26T07:09:15;94856.22;;;2.55;79.67
83195;BME280;73090;49.282;11.402;2024-02-26T07:13:17;94853.88;;;2.60;79.50
83195;BME280;73090;49.282;11.402;2024-02-26T07:17:19;94856.56;;;2.67;77.82
83195;BME280;73090;49.282;11.402;2024-02-26T07:21:21;94877.72;;;2.79;79.77
83195;BME280;73090;49.282;11.402;2024-02-26T07:25:22;94876.00;;;2.86;81.16
83195;BME280;73090;49.282;11.402;2024-02-26T07:29:25;94874.94;;;2.95;80.66
83195;BME280;73090;49.282;11.402;2024-02-26T07:33:27;94851.56;;;2.95;77.78
83195;BME280;73090;49.282;11.402;2024-02-26T07:37:28;94876.38;;;2.98;78.59
83195;BME280;73090;49.282;11.402;2024-02-26T07:41:30;94890.31;;;3.12;80.11
83195;BME280;73090;49.282;11.402;2024-02-26T07:45:31;94887.25;;;3.23;80.47
83195;BME280;73090;49.282;11.402;2024-02-26T07:49:33;94893.59;;;3.35;79.97
83195;BME280;73090;49.282;11.402;2024-02-26T07:53:40;94898.97;;;3.49;78.16
83195;BME280;73090;49.282;11.402;2024-02-26T07:57:42;94906.66;;;3.57;77.43
83195;BME280;73090;49.282;11.402;2024-02-26T08:01:49;94906.97;;;3.69;75.47
83195;BME280;73090;49.282;11.402;2024-02-26T08:05:57;94908.66;;;3.76;75.75
83195;BME280;73090;49.282;11.402;2024-02-26T08:09:59;94906.75;;;3.85;73.43
83195;BME280;73090;49.282;11.402;2024-02-26T08:14:01;94914.94;;;4.04;74.02
83195;BME280;73090;49.282;11.402;2024-02-26T08:18:03;94917.88;;;4.15;72.69
83195;BME280;73090;49.282;11.402;2024-02-26T08:22:05;94913.13;;;4.26;72.06
83195;BME280;73090;49.282;11.402;2024-02-26T08:26:07;94908.19;;;4.31;70.82
83195;BME280;73090;49.282;11.402;2024-02-26T08:30:12;94901.38;;;4.30;70.06
83195;BME280;73090;49.282;11.402;2024-02-26T08:34:17;94915.06;;;4.39;70.76
83195;BME280;73090;49.282;11.402;2024-02-26T08:38:19;94911.91;;;4.22;71.10
83195;BME280;73090;49.282;11.402;2024-02-26T08:42:20;94909.41;;;4.13;71.99
83195;BME280;73090;49.282;11.402;2024-02-26T08:46:22;94905.72;;;4.23;72.19
83195;BME280;73090;49.282;11.402;2024-02-26T08:50:24;94906.72;;;4.22;71.88
83195;BME280;73090;49.282;11.402;2024-02-26T08:54:25;94906.44;;;4.16;72.20
83195;BME280;73090;49.282;11.402;2024-02-26T08:58:28;94910.81;;;4.09;72.61
83195;BME280;73090;49.282;11.402;2024-02-26T09:02:29;94930.09;;;4.00;71.68
83195;BME280;73090;49.282;11.402;2024-02-26T09:06:31;94917.69;;;4.17;73.46
83195;BME280;73090;49.282;11.402;2024-02-26T09:10:33;94918.41;;;4.32;72.58
83195;BME280;73090;49.282;11.402;2024-02-26T09:14:34;94918.28;;;4.41;70.75
83195;BME280;73090;49.282;11.402;2024-02-26T09:18:36;94924.31;;;4.69;70.20
83195;BME280;73090;49.282;11.402;2024-02-26T09:22:38;94918.81;;;4.86;69.35
83195;BME280;73090;49.282;11.402;2024-02-26T09:26:39;94919.56;;;5.08;68.85
83195;BME280;73090;49.282;11.402;2024-02-26T09:30:41;94914.50;;;5.35;67.49
83195;BME280;73090;49.282;11.402;2024-02-26T09:34:42;94913.47;;;5.29;67.45
83195;BME280;73090;49.282;11.402;2024-02-26T09:38:44;94912.41;;;5.58;69.01
83195;BME280;73090;49.282;11.402;2024-02-26T09:43:00;94915.72;;;5.87;65.52
83195;BME280;73090;49.282;11.402;2024-02-26T09:47:03;94922.41;;;6.23;63.67
83195;BME280;73090;49.282;11.402;2024-02-26T09:51:05;94926.69;;;6.44;62.09
83195;BME280;73090;49.282;11.402;2024-02-26T09:55:08;94920.63;;;6.77;62.10
83195;BME280;73090;49.282;11.402;2024-02-26T09:59:14;94927.47;;;7.05;60.64
83195;BME280;73090;49.282;11.402;2024-02-26T10:03:18;94919.78;;;7.23;58.34
83195;BME280;73090;49.282;11.402;2024-02-26T10:07:22;94917.00;;;7.12;60.71
83195;BME280;73090;49.282;11.402;2024-02-26T10:11:24;94916.72;;;7.40;60.37
83195;BME280;73090;49.282;11.402;2024-02-26T10:15:26;94928.34;;;7.51;59.24
83195;BME280;73090;49.282;11.402;2024-02-26T10:19:29;94924.91;;;7.63;59.05
83195;BME280;73090;49.282;11.402;2024-02-26T10:23:34;94929.69;;;7.67;57.25
83195;BME280;73090;49.282;11.402;2024-02-26T10:27:36;94930.06;;;7.77;57.18
83195;BME280;73090;49.282;11.402;2024-02-26T10:31:37;94922.16;;;7.90;55.49
83195;BME280;73090;49.282;11.402;2024-02-26T10:35:46;94925.41;;;8.24;56.16
83195;BME280;73090;49.282;11.402;2024-02-26T10:39:48;94938.16;;;8.46;55.01
83195;BME280;73090;49.282;11.402;2024-02-26T10:43:50;94937.13;;;8.53;52.44
83195;BME280;73090;49.282;11.402;2024-02-26T10:47:53;94936.38;;;8.46;52.89
83195;BME280;73090;49.282;11.402;2024-02-26T10:51:56;94936.75;;;8.50;53.82
83195;BME280;73090;49.282;11.402;2024-02-26T10:56:03;94942.84;;;8.37;54.21
83195;BME280;73090;49.282;11.402;2024-02-26T11:00:06;94942.03;;;8.36;55.80
83195;BME280;73090;49.282;11.402;2024-02-26T11:04:12;94934.84;;;8.64;53.85
83195;BME280;73090;49.282;11.402;2024-02-26T11:08:16;94932.25;;;8.82;52.89
83195;BME280;73090;49.282;11.402;2024-02-26T11:12:20;94933.66;;;8.85;54.15
83195;BME280;73090;49.282;11.402;2024-02-26T11:16:23;94939.59;;;8.99;51.60
83195;BME280;73090;49.282;11.402;2024-02-26T11:20:28;94944.13;;;8.85;50.87
83195;BME280;73090;49.282;11.402;2024-02-26T11:24:30;94944.00;;;8.73;51.23
83195;BME280;73090;49.282;11.402;2024-02-26T11:28:33;94940.34;;;8.81;51.01
83195;BME280;73090;49.282;11.402;2024-02-26T11:32:36;94941.03;;;8.69;50.50
83195;BME280;73090;49.282;11.402;2024-02-26T11:36:38;94941.81;;;8.70;50.92
83195;BME280;73090;49.282;11.402;2024-02-26T11:40:41;94948.53;;;8.66;51.09
83195;BME280;73090;49.282;11.402;2024-02-26T11:44:44;94949.66;;;8.77;50.71
83195;BME280;73090;49.282;11.402;2024-02-26T11:48:46;94955.13;;;8.68;50.96
83195;BME280;73090;49.282;11.402;2024-02-26T12:01:46;94967.59;;;8.98;52.63
83195;BME280;73090;49.282;11.402;2024-02-26T12:05:49;94962.94;;;9.00;49.58
83195;BME280;73090;49.282;11.402;2024-02-26T12:10:14;94970.13;;;8.86;50.81
83195;BME280;73090;49.282;11.402;2024-02-26T12:14:17;94966.81;;;8.98;52.07
83195;BME280;73090;49.282;11.402;2024-02-26T12:18:19;94965.56;;;9.00;52.40
83195;BME280;73090;49.282;11.402;2024-02-26T12:22:23;94968.78;;;9.02;52.49
83195;BME280;73090;49.282;11.402;2024-02-26T12:26:26;94973.19;;;9.08;53.00
83195;BME280;73090;49.282;11.402;2024-02-26T12:30:27;94970.78;;;9.25;50.95
83195;BME280;73090;49.282;11.402;2024-02-26T12:34:33;94971.78;;;9.06;50.98
83195;BME280;73090;49.282;11.402;2024-02-26T12:38:35;94972.13;;;8.91;50.20
83195;BME280;73090;49.282;11.402;2024-02-26T12:42:39;94965.34;;;9.02;50.25
83195;BME280;73090;49.282;11.402;2024-02-26T12:46:41;94965.97;;;9.04;49.83
83195;BME280;73090;49.282;11.402;2024-02-26T12:50:46;94968.84;;;8.96;49.97
83195;BME280;73090;49.282;11.402;2024-02-26T12:54:51;94973.66;;;8.99;49.81
83195;BME280;73090;49.282;11.402;2024-02-26T12:58:53;94968.19;;;9.00;49.28
83195;BME280;73090;49.282;11.402;2024-02-26T13:02:55;94964.06;;;9.11;49.50
83195;BME280;73090;49.282;11.402;2024-02-26T13:06:57;94958.94;;;9.23;49.57
83195;BME280;73090;49.282;11.402;2024-02-26T13:11:05;94953.78;;;9.35;52.14
83195;BME280;73090;49.282;11.402;2024-02-26T13:15:07;94969.22;;;9.24;51.92
83195;BME280;73090;49.282;11.402;2024-02-26T13:19:10;94973.19;;;9.08;52.87
83195;BME280;73090;49.282;11.402;2024-02-26T13:23:12;94981.56;;;9.17;53.71
83195;BME280;73090;49.282;11.402;2024-02-26T13:27:21;94987.56;;;9.24;50.84
83195;BME280;73090;49.282;11.402;2024-02-26T13:31:22;94991.78;;;9.25;52.92
83195;BME280;73090;49.282;11.402;2024-02-26T13:35:24;94983.53;;;9.22;54.49
83195;BME280;73090;49.282;11.402;2024-02-26T13:39:27;94987.09;;;9.09;54.29
83195;BME280;73090;49.282;11.402;2024-02-26T13:43:29;94984.69;;;9.07;52.97
83195;BME280;73090;49.282;11.402;2024-02-26T13:47:31;94992.59;;;9.01;54.39
83195;BME280;73090;49.282;11.402;2024-02-26T13:51:34;94997.25;;;8.99;55.02
83195;BME280;73090;49.282;11.402;2024-02-26T13:55:37;95000.81;;;9.04;54.39
83195;BME280;73090;49.282;11.402;2024-02-26T13:59:39;94992.66;;;8.94;55.47
83195;BME280;73090;49.282;11.402;2024-02-26T14:03:43;94991.84;;;8.94;55.91
83195;BME280;73090;49.282;11.402;2024-02-26T14:07:45;94992.59;;;9.01;54.21
83195;BME280;73090;49.282;11.402;2024-02-26T14:11:52;94991.41;;;8.97;54.87
83195;BME280;73090;49.282;11.402;2024-02-26T14:15:54;94997.94;;;8.87;55.62
83195;BME280;73090;49.282;11.402;2024-02-26T14:19:55;95003.72;;;8.96;55.55
83195;BME280;73090;49.282;11.402;2024-02-26T14:23:57;95004.00;;;8.88;55.71
83195;BME280;73090;49.282;11.402;2024-02-26T14:27:59;95003.44;;;8.79;54.71
83195;BME280;73090;49.282;11.402;2024-02-26T14:32:01;95013.31;;;8.77;55.14
83195;BME280;73090;49.282;11.402;2024-02-26T14:36:03;95021.78;;;8.79;56.34
83195;BME280;73090;49.282;11.402;2024-02-26T14:40:05;95033.03;;;8.86;54.91
83195;BME280;73090;49.282;11.402;2024-02-26T14:44:07;95035.09;;;8.78;55.36
83195;BME280;73090;49.282;11.402;2024-02-26T14:48:09;95038.13;;;8.75;56.50
83195;BME280;73090;49.282;11.402;2024-02-26T14:52:12;95047.91;;;8.61;55.53
83195;BME280;73090;49.282;11.402;2024-02-26T14:56:14;95049.66;;;8.67;56.79
83195;BME280;73090;49.282;11.402;2024-02-26T15:00:16;95037.84;;;8.58;55.95
83195;BME280;73090;49.282;11.402;2024-02-26T15:04:18;95043.28;;;8.49;56.06
83195;BME280;73090;49.282;11.402;2024-02-26T15:08:19;95047.53;;;8.50;56.48
83195;BME280;73090;49.282;11.402;2024-02-26T15:12:21;95049.16;;;8.51;56.95
83195;BME280;73090;49.282;11.402;2024-02-26T15:16:27;95054.75;;;8.55;56.94
83195;BME280;73090;49.282;11.402;2024-02-26T15:20:28;95060.41;;;8.52;56.41
83195;BME280;73090;49.282;11.402;2024-02-26T15:24:32;95049.72;;;8.53;56.78
83195;BME280;73090;49.282;11.402;2024-02-26T15:28:33;95059.63;;;8.51;57.32
83195;BME280;73090;49.282;11.402;2024-02-26T15:32:35;95063.03;;;8.52;57.24
83195;BME280;73090;49.282;11.402;2024-02-26T15:36:37;95061.47;;;8.44;57.18
83195;BME280;73090;49.282;11.402;2024-02-26T15:40:38;95069.13;;;8.39;57.81
83195;BME280;73090;49.282;11.402;2024-02-26T15:44:40;95073.59;;;8.32;56.83
83195;BME280;73090;49.282;11.402;2024-02-26T15:48:42;95077.22;;;8.31;57.57
83195;BME280;73090;49.282;11.402;2024-02-26T15:52:44;95078.81;;;8.25;56.50
83195;BME280;73090;49.282;11.402;2024-02-26T15:56:45;95093.53;;;8.26;57.30
83195;BME280;73090;49.282;11.402;2024-02-26T16:00:47;95098.19;;;8.17;58.49
83195;BME280;73090;49.282;11.402;2024-02-26T16:04:49;95106.03;;;8.17;58.14
83195;BME280;73090;49.282;11.402;2024-02-26T16:08:51;95109.09;;;8.08;59.00
83195;BME280;73090;49.282;11.402;2024-02-26T16:12:55;95109.91;;;8.02;59.30
83195;BME280;73090;49.282;11.402;2024-02-26T16:17:46;95114.53;;;7.99;60.37
83195;BME280;73090;49.282;11.402;2024-02-26T16:21:22;95125.03;;;7.93;60.81
83195;BME280;73090;49.282;11.402;2024-02-26T16:25:24;95123.63;;;7.84;60.70
83195;BME280;73090;49.282;11.402;2024-02-26T16:29:25;95130.28;;;7.79;60.69
83195;BME280;73090;49.282;11.402;2024-02-26T16:33:27;95135.09;;;7.76;60.97
83195;BME280;73090;49.282;11.402;2024-02-26T16:37:30;95127.25;;;7.69;62.14
83195;BME280;73090;49.282;11.402;2024-02-26T16:41:35;95131.72;;;7.62;62.47
83195;BME280;73090;49.282;11.402;2024-02-26T16:45:36;95128.88;;;7.57;63.46
83195;BME280;73090;49.282;11.402;2024-02-26T16:49:38;95137.72;;;7.49;64.31
83195;BME280;73090;49.282;11.402;2024-02-26T16:53:40;95145.38;;;7.44;65.64
83195;BME280;73090;49.282;11.402;2024-02-26T16:57:42;95145.38;;;7.37;67.32
83195;BME280;73090;49.282;11.402;2024-02-26T17:01:46;95155.41;;;7.27;68.70
83195;BME280;73090;49.282;11.402;2024-02-26T17:05:48;95156.22;;;7.21;69.18
83195;BME280;73090;49.282;11.402;2024-02-26T17:09:50;95158.00;;;7.14;69.44
83195;BME280;73090;49.282;11.402;2024-02-26T17:13:51;95165.63;;;7.08;69.76
83195;BME280;73090;49.282;11.402;2024-02-26T17:17:53;95170.25;;;7.06;70.46
83195;BME280;73090;49.282;11.402;2024-02-26T17:21:55;95172.44;;;6.96;70.73
83195;BME280;73090;49.282;11.402;2024-02-26T17:25:56;95173.84;;;6.92;70.91
83195;BME280;73090;49.282;11.402;2024-02-26T17:29:58;95174.00;;;6.84;71.14
83195;BME280;73090;49.282;11.402;2024-02-26T17:33:59;95177.41;;;6.78;71.63
83195;BME280;73090;49.282;11.402;2024-02-26T17:38:01;95185.38;;;6.69;71.67
83195;BME280;73090;49.282;11.402;2024-02-26T17:42:03;95188.16;;;6.54;72.54
83195;BME280;73090;49.282;11.402;2024-02-26T17:46:05;95199.75;;;6.45;73.62
83195;BME280;73090;49.282;11.402;2024-02-26T17:50:07;95209.16;;;6.40;73.76
83195;BME280;73090;49.282;11.402;2024-02-26T17:54:09;95220.53;;;6.25;74.04
83195;BME280;73090;49.282;11.402;2024-02-26T17:58:11;95211.41;;;6.14;74.39
83195;BME280;73090;49.282;11.402;2024-02-26T18:02:12;95217.41;;;6.08;74.44
83195;BME280;73090;49.282;11.402;2024-02-26T18:06:15;95221.75;;;6.01;74.49
83195;BME280;73090;49.282;11.402;2024-02-26T18:10:17;95233.13;;;5.93;74.74
83195;BME280;73090;49.282;11.402;2024-02-26T18:14:23;95241.25;;;5.84;74.77
83195;BME280;73090;49.282;11.402;2024-02-26T18:18:25;95245.41;;;5.78;74.21
83195;BME280;73090;49.282;11.402;2024-02-26T18:22:30;95252.19;;;5.72;74.36
83195;BME280;73090;49.282;11.402;2024-02-26T18:26:32;95259.75;;;5.67;74.59
83195;BME280;73090;49.282;11.402;2024-02-26T18:30:35;95264.31;;;5.58;74.13
83195;BME280;73090;49.282;11.402;2024-02-26T18:34:38;95268.09;;;5.56;73.56
83195;BME280;73090;49.282;11.402;2024-02-26T18:38:40;95267.38;;;5.47;74.13
83195;BME280;73090;49.282;11.402;2024-02-26T18:42:42;95272.34;;;5.42;74.09
83195;BME280;73090;49.282;11.402;2024-02-26T18:46:44;95277.13;;;5.38;74.14
83195;BME280;73090;49.282;11.402;2024-02-26T18:50:47;95277.69;;;5.34;73.42
83195;BME280;73090;49.282;11.402;2024-02-26T18:54:49;95293.84;;;5.29;73.82
83195;BME280;73090;49.282;11.402;2024-02-26T18:58:51;95293.44;;;5.25;73.42
83195;BME280;73090;49.282;11.402;2024-02-26T19:02:52;95300.34;;;5.18;73.50
83195;BME280;73090;49.282;11.402;2024-02-26T19:06:54;95312.31;;;5.13;73.55
83195;BME280;73090;49.282;11.402;2024-02-26T19:10:56;95313.59;;;5.02;74.02
83195;BME280;73090;49.282;11.402;2024-02-26T19:15:00;95322.66;;;4.91;74.12
83195;BME280;73090;49.282;11.402;2024-02-26T19:19:02;95332.00;;;4.85;74.76
83195;BME280;73090;49.282;11.402;2024-02-26T19:23:07;95335.16;;;4.81;75.24
83195;BME280;73090;49.282;11.402;2024-02-26T19:27:08;95341.25;;;4.73;75.29
83195;BME280;73090;49.282;11.402;2024-02-26T19:31:10;95338.03;;;4.71;75.66
83195;BME280;73090;49.282;11.402;2024-02-26T19:35:13;95341.97;;;4.67;75.31
83195;BME280;73090;49.282;11.402;2024-02-26T19:39:15;95344.47;;;4.60;75.75
83195;BME280;73090;49.282;11.402;2024-02-26T19:43:16;95344.38;;;4.53;76.03
83195;BME280;73090;49.282;11.402;2024-02-26T19:47:19;95354.84;;;4.45;76.14
83195;BME280;73090;49.282;11.402;2024-02-26T19:51:20;95349.00;;;4.43;76.15
83195;BME280;73090;49.282;11.402;2024-02-26T19:55:22;95351.97;;;4.40;76.53
83195;BME280;73090;49.282;11.402;2024-02-26T19:59:25;95351.97;;;4.40;76.04
83195;BME280;73090;49.282;11.402;2024-02-26T20:03:26;95360.28;;;4.35;76.04
83195;BME280;73090;49.282;11.402;2024-02-26T20:07:28;95363.16;;;4.26;75.71
83195;BME280;73090;49.282;11.402;2024-02-26T20:11:31;95365.13;;;4.24;76.10
83195;BME280;73090;49.282;11.402;2024-02-26T20:15:33;95371.56;;;4.28;76.50
83195;BME280;73090;49.282;11.402;2024-02-26T20:19:35;95373.00;;;4.15;75.17
83195;BME280;73090;49.282;11.402;2024-02-26T20:23:37;95382.28;;;4.10;75.03
83195;BME280;73090;49.282;11.402;2024-02-26T20:27:39;95378.72;;;4.11;75.37
83195;BME280;73090;49.282;11.402;2024-02-26T20:31:41;95380.88;;;4.07;74.46
83195;BME280;73090;49.282;11.402;2024-02-26T20:35:42;95382.97;;;4.04;74.68
83195;BME280;73090;49.282;11.402;2024-02-26T20:39:44;95387.72;;;4.00;74.54
83195;BME280;73090;49.282;11.402;2024-02-26T20:43:46;95397.94;;;4.02;74.31
83195;BME280;73090;49.282;11.402;2024-02-26T20:47:47;95402.81;;;4.05;73.85
83195;BME280;73090;49.282;11.402;2024-02-26T20:51:54;95401.34;;;4.02;73.41
83195;BME280;73090;49.282;11.402;2024-02-26T20:55:55;95410.50;;;3.98;73.88
83195;BME280;73090;49.282;11.402;2024-02-26T20:59:57;95423.97;;;4.02;74.18
83195;BME280;73090;49.282;11.402;2024-02-26T21:03:59;95425.16;;;3.91;73.38
83195;BME280;73090;49.282;11.402;2024-02-26T21:08:02;95426.31;;;3.88;73.88
83195;BME280;73090;49.282;11.402;2024-02-26T21:12:05;95428.25;;;3.86;74.48
83195;BME280;73090;49.282;11.402;2024-02-26T21:16:07;95430.34;;;3.91;74.04
83195;BME280;73090;49.282;11.402;2024-02-26T21:20:09;95426.28;;;3.96;74.66
83195;BME280;73090;49.282;11.402;2024-02-26T21:24:12;95438.66;;;3.86;74.20
83195;BME280;73090;49.282;11.402;2024-02-26T21:28:13;95447.47;;;3.85;73.81
83195;BME280;73090;49.282;11.402;2024-02-26T21:32:15;95445.31;;;3.89;73.76